sensor_id;sensor_type;location;lat;lon;timestamp;P1;durP1;ratioP1;P2;durP2;ratioP2
47349;SDS011;33088;51.982;5.872;2023-04-06T00:01:39;12.07;;;6.93;;
47349;SDS011;33088;51.982;5.872;2023-04-06T00:04:04;12.65;;;6.50;;
47349;SDS011;33088;51.982;5.872;2023-04-06T00:06:31;12.95;;;7.32;;
47349;SDS011;33088;51.982;5.872;2023-04-06T00:08:57;11.68;;;6.68;;
47349;SDS011;33088;51.982;5.872;2023-04-06T00:11:23;11.25;;;7.47;;
47349;SDS011;33088;51.982;5.872;2023-04-06T00:13:50;15.10;;;7.57;;
47349;SDS011;33088;51.982;5.872;2023-04-06T00:16:15;16.70;;;7.55;;
47349;SDS011;33088;51.982;5.872;2023-04-06T00:18:41;12.40;;;7.28;;
47349;SDS011;33088;51.982;5.872;2023-04-06T00:21:07;11.00;;;6.90;;
47349;SDS011;33088;51.982;5.872;2023-04-06T00:23:32;9.85;;;6.70;;
47349;SDS011;33088;51.982;5.872;2023-04-06T00:25:58;14.73;;;8.40;;
47349;SDS011;33088;51.982;5.872;2023-04-06T00:28:25;14.20;;;8.13;;
47349;SDS011;33088;51.982;5.872;2023-04-06T00:30:51;11.30;;;7.35;;
47349;SDS011;33088;51.982;5.872;2023-04-06T00:33:18;15.13;;;7.85;;
47349;SDS011;33088;51.982;5.872;2023-04-06T00:35:44;11.35;;;6.75;;
47349;SDS011;33088;51.982;5.872;2023-04-06T00:38:11;9.85;;;6.80;;
47349;SDS011;33088;51.982;5.872;2023-04-06T00:40:37;14.45;;;7.30;;
47349;SDS011;33088;51.982;5.872;2023-04-06T00:43:04;15.13;;;7.97;;
47349;SDS011;33088;51.982;5.872;2023-04-06T00:45:30;12.20;;;7.15;;
47349;SDS011;33088;51.982;5.872;2023-04-06T00:47:57;13.15;;;7.68;;
47349;SDS011;33088;51.982;5.872;2023-04-06T00:50:23;11.50;;;7.47;;
47349;SDS011;33088;51.982;5.872;2023-04-06T00:52:49;12.23;;;7.75;;
47349;SDS011;33088;51.982;5.872;2023-04-06T00:55:17;16.40;;;7.93;;
47349;SDS011;33088;51.982;5.872;2023-04-06T00:57:43;14.65;;;8.38;;
47349;SDS011;33088;51.982;5.872;2023-04-06T01:00:09;17.20;;;8.25;;
47349;SDS011;33088;51.982;5.872;2023-04-06T01:02:37;14.43;;;8.15;;
47349;SDS011;33088;51.982;5.872;2023-04-06T01:05:03;16.02;;;7.68;;
47349;SDS011;33088;51.982;5.872;2023-04-06T01:07:38;13.73;;;7.80;;
47349;SDS011;33088;51.982;5.872;2023-04-06T01:10:09;13.95;;;7.55;;
47349;SDS011;33088;51.982;5.872;2023-04-06T01:12:36;10.73;;;7.65;;
47349;SDS011;33088;51.982;5.872;2023-04-06T01:15:08;11.68;;;7.18;;
47349;SDS011;33088;51.982;5.872;2023-04-06T01:17:39;13.38;;;7.78;;
47349;SDS011;33088;51.982;5.872;2023-04-06T01:20:10;11.30;;;7.40;;
47349;SDS011;33088;51.982;5.872;2023-04-06T01:22:37;14.07;;;7.22;;
47349;SDS011;33088;51.982;5.872;2023-04-06T01:25:03;14.65;;;7.35;;
47349;SDS011;33088;51.982;5.872;2023-04-06T01:27:39;14.82;;;7.63;;
47349;SDS011;33088;51.982;5.872;2023-04-06T01:30:12;11.38;;;7.28;;
47349;SDS011;33088;51.982;5.872;2023-04-06T01:32:46;17.50;;;9.30;;
47349;SDS011;33088;51.982;5.872;2023-04-06T01:35:15;12.02;;;7.38;;
47349;SDS011;33088;51.982;5.872;2023-04-06T01:37:50;13.65;;;6.88;;
47349;SDS011;33088;51.982;5.872;2023-04-06T01:40:23;17.50;;;8.57;;
47349;SDS011;33088;51.982;5.872;2023-04-06T01:42:50;13.13;;;7.93;;
47349;SDS011;33088;51.982;5.872;2023-04-06T01:45:24;14.65;;;7.97;;
47349;SDS011;33088;51.982;5.872;2023-04-06T01:47:54;16.13;;;8.75;;
47349;SDS011;33088;51.982;5.872;2023-04-06T01:50:24;17.88;;;9.05;;
47349;SDS011;33088;51.982;5.872;2023-04-06T01:52:49;14.10;;;8.23;;
47349;SDS011;33088;51.982;5.872;2023-04-06T01:55:15;13.52;;;8.05;;
47349;SDS011;33088;51.982;5.872;2023-04-06T01:58:04;18.27;;;9.57;;
47349;SDS011;33088;51.982;5.872;2023-04-06T02:00:34;12.60;;;7.82;;
47349;SDS011;33088;51.982;5.872;2023-04-06T02:03:00;12.93;;;8.35;;
47349;SDS011;33088;51.982;5.872;2023-04-06T02:05:29;14.93;;;8.73;;
47349;SDS011;33088;51.982;5.872;2023-04-06T02:07:55;16.48;;;8.40;;
47349;SDS011;33088;51.982;5.872;2023-04-06T02:10:29;13.05;;;8.18;;
47349;SDS011;33088;51.982;5.872;2023-04-06T02:12:58;16.52;;;8.98;;
47349;SDS011;33088;51.982;5.872;2023-04-06T02:15:26;15.25;;;8.25;;
47349;SDS011;33088;51.982;5.872;2023-04-06T02:17:52;14.05;;;7.95;;
47349;SDS011;33088;51.982;5.872;2023-04-06T02:20:18;15.73;;;8.65;;
47349;SDS011;33088;51.982;5.872;2023-04-06T02:22:44;13.27;;;7.95;;
47349;SDS011;33088;51.982;5.872;2023-04-06T02:25:10;13.48;;;8.73;;
47349;SDS011;33088;51.982;5.872;2023-04-06T02:27:36;14.43;;;8.00;;
47349;SDS011;33088;51.982;5.872;2023-04-06T02:30:02;12.35;;;8.30;;
47349;SDS011;33088;51.982;5.872;2023-04-06T02:32:29;11.57;;;7.85;;
47349;SDS011;33088;51.982;5.872;2023-04-06T02:34:55;15.05;;;8.52;;
47349;SDS011;33088;51.982;5.872;2023-04-06T02:37:22;14.13;;;8.23;;
47349;SDS011;33088;51.982;5.872;2023-04-06T02:39:49;14.88;;;8.75;;
47349;SDS011;33088;51.982;5.872;2023-04-06T02:42:15;15.23;;;8.63;;
47349;SDS011;33088;51.982;5.872;2023-04-06T02:44:42;16.80;;;9.55;;
47349;SDS011;33088;51.982;5.872;2023-04-06T02:47:09;16.40;;;8.00;;
47349;SDS011;33088;51.982;5.872;2023-04-06T02:49:37;16.88;;;11.07;;
47349;SDS011;33088;51.982;5.872;2023-04-06T02:52:02;12.98;;;8.00;;
47349;SDS011;33088;51.982;5.872;2023-04-06T02:54:32;16.00;;;8.95;;
47349;SDS011;33088;51.982;5.872;2023-04-06T02:56:59;15.43;;;8.95;;
47349;SDS011;33088;51.982;5.872;2023-04-06T02:59:34;14.55;;;8.65;;
47349;SDS011;33088;51.982;5.872;2023-04-06T03:02:07;16.27;;;9.25;;
47349;SDS011;33088;51.982;5.872;2023-04-06T03:04:33;16.08;;;9.23;;
47349;SDS011;33088;51.982;5.872;2023-04-06T03:07:00;13.98;;;8.82;;
47349;SDS011;33088;51.982;5.872;2023-04-06T03:09:33;17.02;;;9.38;;
47349;SDS011;33088;51.982;5.872;2023-04-06T03:12:01;17.23;;;9.55;;
47349;SDS011;33088;51.982;5.872;2023-04-06T03:14:29;16.25;;;9.88;;
47349;SDS011;33088;51.982;5.872;2023-04-06T03:16:55;16.48;;;9.23;;
47349;SDS011;33088;51.982;5.872;2023-04-06T03:19:23;19.42;;;9.52;;
47349;SDS011;33088;51.982;5.872;2023-04-06T03:21:49;18.58;;;9.68;;
47349;SDS011;33088;51.982;5.872;2023-04-06T03:24:16;19.15;;;9.45;;
47349;SDS011;33088;51.982;5.872;2023-04-06T03:26:42;15.82;;;9.30;;
47349;SDS011;33088;51.982;5.872;2023-04-06T03:29:07;15.80;;;9.43;;
47349;SDS011;33088;51.982;5.872;2023-04-06T03:31:34;18.70;;;9.82;;
47349;SDS011;33088;51.982;5.872;2023-04-06T03:34:13;17.27;;;9.55;;
47349;SDS011;33088;51.982;5.872;2023-04-06T03:36:39;12.82;;;8.52;;
47349;SDS011;33088;51.982;5.872;2023-04-06T03:39:05;17.65;;;9.07;;
47349;SDS011;33088;51.982;5.872;2023-04-06T03:41:34;16.80;;;8.98;;
47349;SDS011;33088;51.982;5.872;2023-04-06T03:44:26;18.13;;;9.70;;
47349;SDS011;33088;51.982;5.872;2023-04-06T03:46:51;16.83;;;8.80;;
47349;SDS011;33088;51.982;5.872;2023-04-06T03:49:20;15.82;;;8.63;;
47349;SDS011;33088;51.982;5.872;2023-04-06T03:51:49;15.23;;;9.00;;
47349;SDS011;33088;51.982;5.872;2023-04-06T03:54:14;15.02;;;9.43;;
47349;SDS011;33088;51.982;5.872;2023-04-06T03:56:41;14.85;;;8.82;;
47349;SDS011;33088;51.982;5.872;2023-04-06T03:59:06;14.60;;;8.43;;
47349;SDS011;33088;51.982;5.872;2023-04-06T04:01:32;14.00;;;8.68;;
47349;SDS011;33088;51.982;5.872;2023-04-06T04:03:58;20.85;;;9.02;;
47349;SDS011;33088;51.982;5.872;2023-04-06T04:06:24;14.00;;;8.55;;
47349;SDS011;33088;51.982;5.872;2023-04-06T04:08:50;17.63;;;8.93;;
47349;SDS011;33088;51.982;5.872;2023-04-06T04:11:16;16.77;;;8.90;;
47349;SDS011;33088;51.982;5.872;2023-04-06T04:13:41;18.33;;;9.70;;
47349;SDS011;33088;51.982;5.872;2023-04-06T04:16:08;21.77;;;10.02;;
47349;SDS011;33088;51.982;5.872;2023-04-06T04:18:34;12.45;;;8.32;;
47349;SDS011;33088;51.982;5.872;2023-04-06T04:21:00;15.57;;;8.65;;
47349;SDS011;33088;51.982;5.872;2023-04-06T04:23:26;13.93;;;8.93;;
47349;SDS011;33088;51.982;5.872;2023-04-06T04:25:52;13.68;;;8.68;;
47349;SDS011;33088;51.982;5.872;2023-04-06T04:28:17;15.45;;;8.80;;
47349;SDS011;33088;51.982;5.872;2023-04-06T04:30:45;17.33;;;9.15;;
47349;SDS011;33088;51.982;5.872;2023-04-06T04:33:12;19.05;;;9.65;;
47349;SDS011;33088;51.982;5.872;2023-04-06T04:35:41;15.90;;;8.88;;
47349;SDS011;33088;51.982;5.872;2023-04-06T04:38:09;19.95;;;8.55;;
47349;SDS011;33088;51.982;5.872;2023-04-06T04:40:39;19.80;;;9.23;;
47349;SDS011;33088;51.982;5.872;2023-04-06T04:43:09;18.17;;;10.23;;
47349;SDS011;33088;51.982;5.872;2023-04-06T04:45:35;22.80;;;10.23;;
47349;SDS011;33088;51.982;5.872;2023-04-06T04:48:14;15.00;;;9.07;;
47349;SDS011;33088;51.982;5.872;2023-04-06T04:50:49;15.43;;;9.20;;
47349;SDS011;33088;51.982;5.872;2023-04-06T04:53:16;16.65;;;9.90;;
47349;SDS011;33088;51.982;5.872;2023-04-06T04:55:43;18.17;;;10.93;;
47349;SDS011;33088;51.982;5.872;2023-04-06T04:58:10;17.30;;;10.20;;
47349;SDS011;33088;51.982;5.872;2023-04-06T05:00:48;21.58;;;10.02;;
47349;SDS011;33088;51.982;5.872;2023-04-06T05:03:24;19.80;;;10.40;;
47349;SDS011;33088;51.982;5.872;2023-04-06T05:06:01;14.48;;;9.35;;
47349;SDS011;33088;51.982;5.872;2023-04-06T05:08:31;17.15;;;10.18;;
47349;SDS011;33088;51.982;5.872;2023-04-06T05:10:57;18.70;;;10.10;;
47349;SDS011;33088;51.982;5.872;2023-04-06T05:13:23;19.88;;;10.55;;
47349;SDS011;33088;51.982;5.872;2023-04-06T05:15:50;13.50;;;9.23;;
47349;SDS011;33088;51.982;5.872;2023-04-06T05:18:22;20.33;;;10.82;;
47349;SDS011;33088;51.982;5.872;2023-04-06T05:20:48;16.98;;;10.00;;
47349;SDS011;33088;51.982;5.872;2023-04-06T05:23:15;18.58;;;10.82;;
47349;SDS011;33088;51.982;5.872;2023-04-06T05:25:42;18.73;;;10.10;;
47349;SDS011;33088;51.982;5.872;2023-04-06T05:28:16;18.73;;;11.80;;
47349;SDS011;33088;51.982;5.872;2023-04-06T05:30:43;19.77;;;10.18;;
47349;SDS011;33088;51.982;5.872;2023-04-06T05:33:11;19.50;;;11.25;;
47349;SDS011;33088;51.982;5.872;2023-04-06T05:35:49;20.65;;;11.63;;
47349;SDS011;33088;51.982;5.872;2023-04-06T05:38:16;19.50;;;11.00;;
47349;SDS011;33088;51.982;5.872;2023-04-06T05:40:42;18.73;;;11.18;;
47349;SDS011;33088;51.982;5.872;2023-04-06T05:43:12;19.40;;;10.80;;
47349;SDS011;33088;51.982;5.872;2023-04-06T05:45:43;29.17;;;11.23;;
47349;SDS011;33088;51.982;5.872;2023-04-06T05:48:10;20.92;;;11.38;;
47349;SDS011;33088;51.982;5.872;2023-04-06T05:50:36;26.90;;;11.35;;
47349;SDS011;33088;51.982;5.872;2023-04-06T05:53:02;18.70;;;10.82;;
47349;SDS011;33088;51.982;5.872;2023-04-06T05:55:35;19.23;;;10.43;;
47349;SDS011;33088;51.982;5.872;2023-04-06T05:58:09;20.55;;;11.25;;
47349;SDS011;33088;51.982;5.872;2023-04-06T06:00:35;19.70;;;11.40;;
47349;SDS011;33088;51.982;5.872;2023-04-06T06:03:04;19.65;;;11.25;;
47349;SDS011;33088;51.982;5.872;2023-04-06T06:05:31;24.17;;;12.15;;
47349;SDS011;33088;51.982;5.872;2023-04-06T06:08:03;21.70;;;11.27;;
47349;SDS011;33088;51.982;5.872;2023-04-06T06:10:29;22.00;;;11.95;;
47349;SDS011;33088;51.982;5.872;2023-04-06T06:12:55;21.90;;;11.50;;
47349;SDS011;33088;51.982;5.872;2023-04-06T06:15:22;25.45;;;13.27;;
47349;SDS011;33088;51.982;5.872;2023-04-06T06:17:47;19.55;;;11.82;;
47349;SDS011;33088;51.982;5.872;2023-04-06T06:20:13;19.25;;;11.93;;
47349;SDS011;33088;51.982;5.872;2023-04-06T06:22:41;21.83;;;11.88;;
47349;SDS011;33088;51.982;5.872;2023-04-06T06:25:11;20.10;;;12.15;;
47349;SDS011;33088;51.982;5.872;2023-04-06T06:27:37;26.10;;;12.80;;
47349;SDS011;33088;51.982;5.872;2023-04-06T06:30:04;21.80;;;12.18;;
47349;SDS011;33088;51.982;5.872;2023-04-06T06:32:31;27.35;;;11.60;;
47349;SDS011;33088;51.982;5.872;2023-04-06T06:34:58;20.48;;;12.25;;
47349;SDS011;33088;51.982;5.872;2023-04-06T06:37:23;18.80;;;10.82;;
47349;SDS011;33088;51.982;5.872;2023-04-06T06:39:49;24.83;;;12.88;;
47349;SDS011;33088;51.982;5.872;2023-04-06T06:42:15;20.60;;;12.13;;
47349;SDS011;33088;51.982;5.872;2023-04-06T06:45:01;25.67;;;12.40;;
47349;SDS011;33088;51.982;5.872;2023-04-06T06:47:27;18.83;;;11.65;;
47349;SDS011;33088;51.982;5.872;2023-04-06T06:49:53;22.05;;;12.43;;
47349;SDS011;33088;51.982;5.872;2023-04-06T06:52:19;21.75;;;12.57;;
47349;SDS011;33088;51.982;5.872;2023-04-06T06:54:45;25.92;;;11.98;;
47349;SDS011;33088;51.982;5.872;2023-04-06T06:57:10;20.77;;;12.45;;
47349;SDS011;33088;51.982;5.872;2023-04-06T06:59:36;23.30;;;13.07;;
47349;SDS011;33088;51.982;5.872;2023-04-06T07:02:02;23.02;;;12.90;;
47349;SDS011;33088;51.982;5.872;2023-04-06T07:04:28;19.33;;;12.38;;
47349;SDS011;33088;51.982;5.872;2023-04-06T07:06:53;22.90;;;12.35;;
47349;SDS011;33088;51.982;5.872;2023-04-06T07:09:20;24.75;;;12.30;;
47349;SDS011;33088;51.982;5.872;2023-04-06T07:11:46;24.15;;;13.55;;
47349;SDS011;33088;51.982;5.872;2023-04-06T07:14:11;22.85;;;12.88;;
47349;SDS011;33088;51.982;5.872;2023-04-06T07:16:37;26.80;;;13.50;;
47349;SDS011;33088;51.982;5.872;2023-04-06T07:19:03;24.17;;;12.65;;
47349;SDS011;33088;51.982;5.872;2023-04-06T07:21:29;23.90;;;13.80;;
47349;SDS011;33088;51.982;5.872;2023-04-06T07:23:55;22.65;;;13.32;;
47349;SDS011;33088;51.982;5.872;2023-04-06T07:26:21;19.08;;;12.77;;
47349;SDS011;33088;51.982;5.872;2023-04-06T07:28:46;23.83;;;13.18;;
47349;SDS011;33088;51.982;5.872;2023-04-06T07:31:12;25.10;;;12.77;;
47349;SDS011;33088;51.982;5.872;2023-04-06T07:33:39;19.10;;;12.40;;
47349;SDS011;33088;51.982;5.872;2023-04-06T07:36:05;23.08;;;12.88;;
47349;SDS011;33088;51.982;5.872;2023-04-06T07:38:31;22.17;;;12.57;;
47349;SDS011;33088;51.982;5.872;2023-04-06T07:40:57;21.15;;;12.57;;
47349;SDS011;33088;51.982;5.872;2023-04-06T07:43:23;20.52;;;11.88;;
47349;SDS011;33088;51.982;5.872;2023-04-06T07:45:49;24.35;;;12.77;;
47349;SDS011;33088;51.982;5.872;2023-04-06T07:48:15;20.77;;;13.52;;
47349;SDS011;33088;51.982;5.872;2023-04-06T07:50:41;21.92;;;12.27;;
47349;SDS011;33088;51.982;5.872;2023-04-06T07:53:08;22.45;;;13.05;;
47349;SDS011;33088;51.982;5.872;2023-04-06T07:55:34;27.20;;;14.05;;
47349;SDS011;33088;51.982;5.872;2023-04-06T07:58:00;24.05;;;13.82;;
47349;SDS011;33088;51.982;5.872;2023-04-06T08:00:25;22.58;;;13.73;;
47349;SDS011;33088;51.982;5.872;2023-04-06T08:02:51;28.05;;;13.75;;
47349;SDS011;33088;51.982;5.872;2023-04-06T08:05:17;26.67;;;12.90;;
47349;SDS011;33088;51.982;5.872;2023-04-06T08:07:43;24.52;;;14.00;;
47349;SDS011;33088;51.982;5.872;2023-04-06T08:10:08;23.35;;;13.48;;
47349;SDS011;33088;51.982;5.872;2023-04-06T08:12:35;24.48;;;13.70;;
47349;SDS011;33088;51.982;5.872;2023-04-06T08:15:01;21.38;;;13.18;;
47349;SDS011;33088;51.982;5.872;2023-04-06T08:17:27;23.13;;;13.77;;
47349;SDS011;33088;51.982;5.872;2023-04-06T08:19:55;24.73;;;13.38;;
47349;SDS011;33088;51.982;5.872;2023-04-06T08:22:21;21.88;;;13.70;;
47349;SDS011;33088;51.982;5.872;2023-04-06T08:24:46;21.48;;;12.80;;
47349;SDS011;33088;51.982;5.872;2023-04-06T08:27:12;24.98;;;13.77;;
47349;SDS011;33088;51.982;5.872;2023-04-06T08:29:39;22.52;;;13.75;;
47349;SDS011;33088;51.982;5.872;2023-04-06T08:32:05;22.13;;;12.73;;
47349;SDS011;33088;51.982;5.872;2023-04-06T08:34:34;23.75;;;13.90;;
47349;SDS011;33088;51.982;5.872;2023-04-06T08:37:00;27.58;;;13.20;;
47349;SDS011;33088;51.982;5.872;2023-04-06T08:39:26;23.42;;;12.30;;
47349;SDS011;33088;51.982;5.872;2023-04-06T08:41:53;23.65;;;13.18;;
47349;SDS011;33088;51.982;5.872;2023-04-06T08:44:22;22.27;;;13.15;;
47349;SDS011;33088;51.982;5.872;2023-04-06T08:46:48;23.63;;;12.82;;
47349;SDS011;33088;51.982;5.872;2023-04-06T08:49:15;22.60;;;12.77;;
47349;SDS011;33088;51.982;5.872;2023-04-06T08:51:41;26.45;;;12.93;;
47349;SDS011;33088;51.982;5.872;2023-04-06T08:54:07;28.17;;;13.82;;
47349;SDS011;33088;51.982;5.872;2023-04-06T08:56:33;18.17;;;12.18;;
47349;SDS011;33088;51.982;5.872;2023-04-06T08:59:03;26.33;;;13.90;;
47349;SDS011;33088;51.982;5.872;2023-04-06T09:01:29;24.23;;;12.52;;
47349;SDS011;33088;51.982;5.872;2023-04-06T09:04:01;20.93;;;13.30;;
47349;SDS011;33088;51.982;5.872;2023-04-06T09:06:30;22.65;;;13.73;;
47349;SDS011;33088;51.982;5.872;2023-04-06T09:08:56;24.27;;;13.52;;
47349;SDS011;33088;51.982;5.872;2023-04-06T09:11:23;25.83;;;13.50;;
47349;SDS011;33088;51.982;5.872;2023-04-06T09:13:51;20.65;;;13.43;;
47349;SDS011;33088;51.982;5.872;2023-04-06T09:16:21;22.93;;;14.57;;
47349;SDS011;33088;51.982;5.872;2023-04-06T09:18:48;18.27;;;12.52;;
47349;SDS011;33088;51.982;5.872;2023-04-06T09:21:16;23.77;;;13.98;;
47349;SDS011;33088;51.982;5.872;2023-04-06T09:23:43;24.55;;;13.32;;
47349;SDS011;33088;51.982;5.872;2023-04-06T09:26:10;21.50;;;12.45;;
47349;SDS011;33088;51.982;5.872;2023-04-06T09:31:16;19.20;;;13.07;;
47349;SDS011;33088;51.982;5.872;2023-04-06T09:33:49;21.38;;;14.15;;
47349;SDS011;33088;51.982;5.872;2023-04-06T09:36:17;26.55;;;14.32;;
47349;SDS011;33088;51.982;5.872;2023-04-06T09:38:53;23.63;;;15.93;;
47349;SDS011;33088;51.982;5.872;2023-04-06T09:43:52;22.77;;;14.18;;
47349;SDS011;33088;51.982;5.872;2023-04-06T09:46:30;26.50;;;16.02;;
47349;SDS011;33088;51.982;5.872;2023-04-06T09:49:03;29.73;;;17.50;;
47349;SDS011;33088;51.982;5.872;2023-04-06T09:51:36;24.38;;;16.05;;
47349;SDS011;33088;51.982;5.872;2023-04-06T09:54:03;27.38;;;16.98;;
47349;SDS011;33088;51.982;5.872;2023-04-06T10:02:26;29.70;;;16.35;;
47349;SDS011;33088;51.982;5.872;2023-04-06T10:05:30;23.58;;;15.88;;
47349;SDS011;33088;51.982;5.872;2023-04-06T10:08:06;27.63;;;17.20;;
47349;SDS011;33088;51.982;5.872;2023-04-06T10:10:35;23.42;;;15.27;;
47349;SDS011;33088;51.982;5.872;2023-04-06T10:13:01;26.05;;;16.05;;
47349;SDS011;33088;51.982;5.872;2023-04-06T10:15:28;24.35;;;15.75;;
47349;SDS011;33088;51.982;5.872;2023-04-06T10:17:55;30.90;;;16.10;;
47349;SDS011;33088;51.982;5.872;2023-04-06T10:20:29;28.13;;;16.02;;
47349;SDS011;33088;51.982;5.872;2023-04-06T10:23:13;29.73;;;15.27;;
47349;SDS011;33088;51.982;5.872;2023-04-06T10:25:57;26.00;;;14.55;;
47349;SDS011;33088;51.982;5.872;2023-04-06T10:28:24;24.23;;;14.73;;
47349;SDS011;33088;51.982;5.872;2023-04-06T10:30:57;24.80;;;13.25;;
47349;SDS011;33088;51.982;5.872;2023-04-06T10:33:24;22.38;;;14.10;;
47349;SDS011;33088;51.982;5.872;2023-04-06T10:35:50;26.40;;;15.18;;
47349;SDS011;33088;51.982;5.872;2023-04-06T10:38:16;25.17;;;15.55;;
47349;SDS011;33088;51.982;5.872;2023-04-06T10:40:46;28.30;;;14.30;;
47349;SDS011;33088;51.982;5.872;2023-04-06T10:45:57;24.75;;;14.13;;
47349;SDS011;33088;51.982;5.872;2023-04-06T10:48:36;26.55;;;13.95;;
47349;SDS011;33088;51.982;5.872;2023-04-06T10:51:15;23.65;;;13.15;;
47349;SDS011;33088;51.982;5.872;2023-04-06T10:53:44;19.83;;;13.57;;
47349;SDS011;33088;51.982;5.872;2023-04-06T10:56:16;20.40;;;13.95;;
47349;SDS011;33088;51.982;5.872;2023-04-06T10:58:52;26.58;;;13.98;;
47349;SDS011;33088;51.982;5.872;2023-04-06T11:01:19;23.90;;;13.40;;
47349;SDS011;33088;51.982;5.872;2023-04-06T11:03:47;25.13;;;13.45;;
47349;SDS011;33088;51.982;5.872;2023-04-06T11:06:18;18.15;;;12.73;;
47349;SDS011;33088;51.982;5.872;2023-04-06T11:08:52;18.38;;;12.25;;
47349;SDS011;33088;51.982;5.872;2023-04-06T11:11:19;20.30;;;13.13;;
47349;SDS011;33088;51.982;5.872;2023-04-06T11:13:50;21.75;;;12.32;;
47349;SDS011;33088;51.982;5.872;2023-04-06T11:16:27;21.95;;;12.48;;
47349;SDS011;33088;51.982;5.872;2023-04-06T11:18:55;23.83;;;12.15;;
47349;SDS011;33088;51.982;5.872;2023-04-06T11:24:12;16.90;;;10.95;;
47349;SDS011;33088;51.982;5.872;2023-04-06T11:29:22;21.60;;;11.90;;
47349;SDS011;33088;51.982;5.872;2023-04-06T11:31:54;19.10;;;11.82;;
47349;SDS011;33088;51.982;5.872;2023-04-06T11:34:25;17.13;;;10.77;;
47349;SDS011;33088;51.982;5.872;2023-04-06T11:36:56;17.58;;;11.73;;
47349;SDS011;33088;51.982;5.872;2023-04-06T11:39:25;17.77;;;10.52;;
47349;SDS011;33088;51.982;5.872;2023-04-06T11:41:59;19.63;;;11.25;;
47349;SDS011;33088;51.982;5.872;2023-04-06T11:44:34;17.38;;;10.95;;
47349;SDS011;33088;51.982;5.872;2023-04-06T11:47:04;14.43;;;10.30;;
47349;SDS011;33088;51.982;5.872;2023-04-06T11:49:33;14.52;;;9.80;;
47349;SDS011;33088;51.982;5.872;2023-04-06T11:52:13;28.13;;;10.82;;
47349;SDS011;33088;51.982;5.872;2023-04-06T11:54:40;17.48;;;11.20;;
47349;SDS011;33088;51.982;5.872;2023-04-06T11:57:07;16.42;;;11.95;;
47349;SDS011;33088;51.982;5.872;2023-04-06T11:59:34;15.88;;;10.48;;
47349;SDS011;33088;51.982;5.872;2023-04-06T12:02:03;16.02;;;10.23;;
47349;SDS011;33088;51.982;5.872;2023-04-06T12:04:29;14.63;;;10.50;;
47349;SDS011;33088;51.982;5.872;2023-04-06T12:06:55;12.60;;;8.40;;
47349;SDS011;33088;51.982;5.872;2023-04-06T12:09:21;13.38;;;8.35;;
47349;SDS011;33088;51.982;5.872;2023-04-06T12:11:47;14.77;;;9.23;;
47349;SDS011;33088;51.982;5.872;2023-04-06T12:14:13;16.52;;;9.18;;
47349;SDS011;33088;51.982;5.872;2023-04-06T12:16:39;12.85;;;8.95;;
47349;SDS011;33088;51.982;5.872;2023-04-06T12:19:05;11.75;;;7.93;;
47349;SDS011;33088;51.982;5.872;2023-04-06T12:21:31;14.43;;;8.55;;
47349;SDS011;33088;51.982;5.872;2023-04-06T12:23:58;13.13;;;8.88;;
47349;SDS011;33088;51.982;5.872;2023-04-06T12:26:24;14.68;;;8.65;;
47349;SDS011;33088;51.982;5.872;2023-04-06T12:28:51;15.15;;;9.25;;
47349;SDS011;33088;51.982;5.872;2023-04-06T12:31:18;11.45;;;8.73;;
47349;SDS011;33088;51.982;5.872;2023-04-06T12:33:48;10.93;;;7.95;;
47349;SDS011;33088;51.982;5.872;2023-04-06T12:36:18;9.02;;;6.97;;
47349;SDS011;33088;51.982;5.872;2023-04-06T12:38:48;10.00;;;7.32;;
47349;SDS011;33088;51.982;5.872;2023-04-06T12:41:14;11.23;;;7.40;;
47349;SDS011;33088;51.982;5.872;2023-04-06T12:43:40;12.35;;;6.95;;
47349;SDS011;33088;51.982;5.872;2023-04-06T12:46:07;9.50;;;6.78;;
47349;SDS011;33088;51.982;5.872;2023-04-06T12:48:34;9.60;;;6.68;;
47349;SDS011;33088;51.982;5.872;2023-04-06T12:51:02;10.38;;;6.53;;
47349;SDS011;33088;51.982;5.872;2023-04-06T12:53:31;11.45;;;6.80;;
47349;SDS011;33088;51.982;5.872;2023-04-06T12:55:58;10.38;;;6.15;;
47349;SDS011;33088;51.982;5.872;2023-04-06T12:58:27;9.55;;;6.10;;
47349;SDS011;33088;51.982;5.872;2023-04-06T13:00:54;8.02;;;5.97;;
47349;SDS011;33088;51.982;5.872;2023-04-06T13:03:21;11.38;;;6.65;;
47349;SDS011;33088;51.982;5.872;2023-04-06T13:05:47;9.40;;;5.68;;
47349;SDS011;33088;51.982;5.872;2023-04-06T13:08:18;7.35;;;5.85;;
47349;SDS011;33088;51.982;5.872;2023-04-06T13:10:47;9.88;;;6.65;;
47349;SDS011;33088;51.982;5.872;2023-04-06T13:13:14;8.52;;;6.47;;
47349;SDS011;33088;51.982;5.872;2023-04-06T13:15:40;9.68;;;6.65;;
47349;SDS011;33088;51.982;5.872;2023-04-06T13:18:06;10.63;;;6.90;;
47349;SDS011;33088;51.982;5.872;2023-04-06T13:20:33;9.65;;;6.93;;
47349;SDS011;33088;51.982;5.872;2023-04-06T13:22:59;10.07;;;6.45;;
47349;SDS011;33088;51.982;5.872;2023-04-06T13:25:24;13.65;;;7.43;;
47349;SDS011;33088;51.982;5.872;2023-04-06T13:27:50;14.10;;;7.50;;
47349;SDS011;33088;51.982;5.872;2023-04-06T13:30:16;11.13;;;7.00;;
47349;SDS011;33088;51.982;5.872;2023-04-06T13:32:42;12.07;;;7.65;;
47349;SDS011;33088;51.982;5.872;2023-04-06T13:35:07;12.75;;;6.80;;
47349;SDS011;33088;51.982;5.872;2023-04-06T13:37:34;11.50;;;7.75;;
47349;SDS011;33088;51.982;5.872;2023-04-06T13:40:01;13.05;;;8.80;;
47349;SDS011;33088;51.982;5.872;2023-04-06T13:42:27;17.35;;;8.35;;
47349;SDS011;33088;51.982;5.872;2023-04-06T13:44:53;10.70;;;8.40;;
47349;SDS011;33088;51.982;5.872;2023-04-06T13:47:19;11.98;;;8.57;;
47349;SDS011;33088;51.982;5.872;2023-04-06T13:49:46;11.00;;;8.38;;
47349;SDS011;33088;51.982;5.872;2023-04-06T13:52:12;12.40;;;8.57;;
47349;SDS011;33088;51.982;5.872;2023-04-06T13:54:37;11.65;;;8.27;;
47349;SDS011;33088;51.982;5.872;2023-04-06T13:57:03;11.35;;;8.48;;
47349;SDS011;33088;51.982;5.872;2023-04-06T13:59:33;12.75;;;9.02;;
47349;SDS011;33088;51.982;5.872;2023-04-06T14:02:02;12.32;;;8.63;;
47349;SDS011;33088;51.982;5.872;2023-04-06T14:04:28;14.55;;;9.70;;
47349;SDS011;33088;51.982;5.872;2023-04-06T14:06:54;12.23;;;8.35;;
47349;SDS011;33088;51.982;5.872;2023-04-06T14:09:20;14.95;;;8.63;;
47349;SDS011;33088;51.982;5.872;2023-04-06T14:11:45;17.02;;;10.60;;
47349;SDS011;33088;51.982;5.872;2023-04-06T14:14:11;18.80;;;9.75;;
47349;SDS011;33088;51.982;5.872;2023-04-06T14:16:37;13.88;;;9.45;;
47349;SDS011;33088;51.982;5.872;2023-04-06T14:19:03;15.57;;;10.00;;
47349;SDS011;33088;51.982;5.872;2023-04-06T14:21:28;15.15;;;10.65;;
47349;SDS011;33088;51.982;5.872;2023-04-06T14:23:54;17.20;;;11.10;;
47349;SDS011;33088;51.982;5.872;2023-04-06T14:26:20;14.30;;;10.18;;
47349;SDS011;33088;51.982;5.872;2023-04-06T14:28:46;15.48;;;10.80;;
47349;SDS011;33088;51.982;5.872;2023-04-06T14:31:13;15.38;;;10.40;;
47349;SDS011;33088;51.982;5.872;2023-04-06T14:33:39;16.52;;;10.82;;
47349;SDS011;33088;51.982;5.872;2023-04-06T14:36:06;17.98;;;10.85;;
47349;SDS011;33088;51.982;5.872;2023-04-06T14:38:32;16.00;;;10.82;;
47349;SDS011;33088;51.982;5.872;2023-04-06T14:40:58;16.70;;;11.57;;
47349;SDS011;33088;51.982;5.872;2023-04-06T14:43:23;18.38;;;11.40;;
47349;SDS011;33088;51.982;5.872;2023-04-06T14:45:50;17.83;;;11.15;;
47349;SDS011;33088;51.982;5.872;2023-04-06T14:48:16;19.50;;;11.27;;
47349;SDS011;33088;51.982;5.872;2023-04-06T14:50:51;18.88;;;12.63;;
47349;SDS011;33088;51.982;5.872;2023-04-06T14:53:18;17.42;;;11.02;;